Time;durP1;ratioP1;P1;durP2;ratioP2;P2;SDS_P1;SDS_P2;PMS_P1;PMS_P2;Temp;Humidity;BMP_temperature;BMP_pressure;BME280_temperature;BME280_humidity;BME280_pressure;Samples;Min_cycle;Max_cycle;Signal;HPM_P1;HPM_P2
2023/07/05 00:00:41;;;;;;;9.70;3.55;;;14.90;99.90;;;;;;5048952;28;20064;-74
2023/07/05 00:03:07;;;;;;;8.82;4.10;;;14.80;99.90;;;;;;5035131;28;20047;-74
2023/07/05 00:05:39;;;;;;;8.95;3.22;;;14.80;99.90;;;;;;5035330;28;20063;-76
2023/07/05 00:08:05;;;;;;;10.05;3.30;;;14.80;99.90;;;;;;5053026;28;20037;-74
2023/07/05 00:10:32;;;;;;;11.40;3.63;;;14.80;99.90;;;;;;5043305;28;20057;-74
2023/07/05 00:12:59;;;;;;;7.43;3.65;;;14.80;99.90;;;;;;5052534;28;20040;-74
2023/07/05 00:15:25;;;;;;;12.07;3.42;;;14.80;99.90;;;;;;5049222;28;20041;-76
2023/07/05 00:17:52;;;;;;;8.90;3.50;;;14.80;99.90;;;;;;5048816;28;20427;-75
2023/07/05 00:20:18;;;;;;;10.25;4.97;;;14.80;99.90;;;;;;5052630;28;20563;-76
2023/07/05 00:22:43;;;;;;;10.70;4.25;;;14.70;99.90;;;;;;5052376;28;20124;-76
2023/07/05 00:25:09;;;;;;;11.57;4.00;;;14.70;99.90;;;;;;5034698;28;20040;-76
2023/07/05 00:27:35;;;;;;;9.93;4.35;;;14.70;99.90;;;;;;5052186;28;20541;-75
2023/07/05 00:30:00;;;;;;;12.02;4.53;;;14.70;99.90;;;;;;5038440;28;20068;-77
2023/07/05 00:32:26;;;;;;;7.30;3.75;;;14.70;99.90;;;;;;5032166;28;20461;-75
2023/07/05 00:34:52;;;;;;;12.02;4.38;;;14.70;99.90;;;;;;5032415;28;20045;-77
2023/07/05 00:37:17;;;;;;;9.75;4.43;;;14.70;99.90;;;;;;5013969;28;20053;-75
2023/07/05 00:39:43;;;;;;;14.52;4.72;;;14.70;99.90;;;;;;5014168;28;20049;-74
2023/07/05 00:42:09;;;;;;;9.63;4.20;;;14.60;99.90;;;;;;5014174;28;20041;-74
2023/07/05 00:44:34;;;;;;;12.15;4.15;;;14.70;99.90;;;;;;5031615;28;20033;-77
2023/07/05 00:47:21;;;;;;;13.10;4.25;;;14.70;99.90;;;;;;5030051;28;20121;-77
2023/07/05 00:49:47;;;;;;;11.27;4.30;;;14.70;99.90;;;;;;5025147;28;20041;-75
2023/07/05 00:52:16;;;;;;;14.55;4.47;;;14.60;99.90;;;;;;5032003;28;20049;-75
2023/07/05 00:54:47;;;;;;;14.52;4.55;;;14.60;99.90;;;;;;5005692;28;20038;-76
2023/07/05 00:57:15;;;;;;;9.68;4.38;;;14.60;99.90;;;;;;5031713;28;20072;-76
2023/07/05 00:59:46;;;;;;;11.00;4.60;;;14.50;99.90;;;;;;5013457;28;20073;-77
2023/07/05 01:02:14;;;;;;;15.60;4.68;;;14.60;99.90;;;;;;5013731;28;20081;-78
2023/07/05 01:04:40;;;;;;;10.63;4.78;;;14.60;99.90;;;;;;5031760;28;20049;-77
2023/07/05 01:07:06;;;;;;;13.98;4.57;;;14.60;99.90;;;;;;5031537;28;20496;-75
2023/07/05 01:09:32;;;;;;;10.02;4.70;;;14.60;99.90;;;;;;5013994;28;20041;-74
2023/07/05 01:12:25;;;;;;;12.57;4.47;;;14.60;99.90;;;;;;5022392;28;20499;-76
2023/07/05 01:15:10;;;;;;;14.40;4.88;;;14.60;99.90;;;;;;5013638;28;20053;-75
2023/07/05 01:17:41;;;;;;;8.00;4.00;;;14.60;99.90;;;;;;5013083;28;20041;-77
2023/07/05 01:20:36;;;;;;;13.90;5.03;;;14.60;99.90;;;;;;5005569;28;20558;-74
2023/07/05 01:23:19;;;;;;;11.37;4.17;;;14.60;99.90;;;;;;5028283;28;20061;-79
2023/07/05 01:26:04;;;;;;;10.13;5.00;;;14.60;99.90;;;;;;5031099;28;20316;-73
2023/07/05 01:29:00;;;;;;;14.90;5.38;;;14.60;99.90;;;;;;5024377;28;20045;-73
2023/07/05 01:31:38;;;;;;;14.93;5.93;;;14.60;99.90;;;;;;5024078;28;20053;-75
2023/07/05 01:34:16;;;;;;;12.07;5.10;;;14.60;99.90;;;;;;5029866;28;20559;-77
2023/07/05 01:36:42;;;;;;;11.20;5.07;;;14.60;99.90;;;;;;5007894;28;20053;-76
2023/07/05 01:39:08;;;;;;;11.88;5.07;;;14.50;99.90;;;;;;5013206;28;20409;-72
2023/07/05 01:41:34;;;;;;;12.52;5.28;;;14.60;99.90;;;;;;5012919;28;20076;-75
2023/07/05 01:43:59;;;;;;;12.90;5.72;;;14.50;99.90;;;;;;5031187;28;20045;-73
2023/07/05 01:46:37;;;;;;;15.20;6.20;;;14.60;99.90;;;;;;5030918;28;20514;-76
2023/07/05 01:49:15;;;;;;;12.15;6.10;;;14.60;99.90;;;;;;5030640;28;20144;-80
2023/07/05 01:52:27;;;;;;;16.02;6.55;;;14.50;99.90;;;;;;5023301;28;20100;-78
2023/07/05 01:54:58;;;;;;;12.52;6.43;;;14.50;99.90;;;;;;4969561;28;20046;-74
2023/07/05 01:57:33;;;;;;;17.90;6.60;;;14.50;99.90;;;;;;4969385;28;20058;-73
2023/07/05 02:00:15;;;;;;;17.48;6.95;;;14.40;99.90;;;;;;4948079;29;20043;-73
2023/07/05 02:02:53;;;;;;;17.83;7.43;;;14.40;99.90;;;;;;4944571;28;20067;-75
2023/07/05 02:05:22;;;;;;;12.38;7.03;;;14.40;99.90;;;;;;4969353;28;20047;-79
2023/07/05 02:07:48;;;;;;;13.35;7.20;;;14.40;99.90;;;;;;4969288;28;20057;-73
2023/07/05 02:10:14;;;;;;;11.55;6.60;;;14.40;99.90;;;;;;4969488;28;20089;-81
2023/07/05 02:12:40;;;;;;;12.63;6.90;;;14.40;99.90;;;;;;4969429;28;20117;-73
2023/07/05 02:15:06;;;;;;;11.88;7.63;;;14.40;99.90;;;;;;4953327;28;20054;-75
2023/07/05 02:17:32;;;;;;;27.27;9.18;;;14.40;99.90;;;;;;4969277;28;20042;-74
2023/07/05 02:19:57;;;;;;;17.10;8.73;;;14.40;99.90;;;;;;4968890;28;20046;-77
2023/07/05 02:22:23;;;;;;;20.35;8.93;;;14.50;99.90;;;;;;4968915;28;20138;-74
2023/07/05 02:24:53;;;;;;;15.75;8.23;;;14.40;99.90;;;;;;4968040;28;20086;-78
2023/07/05 02:27:19;;;;;;;21.42;8.30;;;14.40;99.90;;;;;;4968944;28;20055;-74
2023/07/05 02:29:44;;;;;;;17.85;9.05;;;14.40;99.90;;;;;;5010771;28;20133;-77
2023/07/05 02:32:10;;;;;;;20.40;9.55;;;14.50;99.90;;;;;;5028668;28;20475;-78
2023/07/05 02:34:40;;;;;;;18.48;9.07;;;14.40;99.90;;;;;;5048278;28;20025;-76
2023/07/05 02:37:07;;;;;;;18.55;9.50;;;14.50;99.90;;;;;;5031518;28;20480;-77
2023/07/05 02:39:33;;;;;;;16.13;9.77;;;14.40;99.90;;;;;;5050013;28;20073;-75
2023/07/05 02:41:58;;;;;;;18.50;9.43;;;14.40;99.90;;;;;;5032087;28;20103;-75
2023/07/05 02:44:24;;;;;;;16.05;8.65;;;14.50;99.90;;;;;;5049583;28;20040;-76
2023/07/05 02:46:50;;;;;;;18.75;9.18;;;14.40;99.90;;;;;;5050049;28;20041;-76
2023/07/05 02:49:15;;;;;;;19.35;10.43;;;14.40;99.90;;;;;;5049871;28;20094;-75
2023/07/05 02:51:41;;;;;;;16.45;9.50;;;14.40;99.90;;;;;;5049913;28;20041;-74
2023/07/05 02:54:08;;;;;;;16.05;9.18;;;14.40;99.90;;;;;;5050054;28;20458;-73
2023/07/05 02:56:33;;;;;;;16.92;9.93;;;14.40;99.90;;;;;;5032082;28;20590;-84
2023/07/05 02:58:59;;;;;;;14.43;8.82;;;14.40;99.90;;;;;;5046335;28;20116;-80
2023/07/05 03:01:25;;;;;;;14.27;9.23;;;14.40;99.90;;;;;;5047134;28;20135;-81
2023/07/05 03:03:50;;;;;;;17.73;9.95;;;14.40;99.90;;;;;;5044704;28;20049;-79
2023/07/05 03:06:16;;;;;;;14.77;9.20;;;14.40;99.90;;;;;;5049837;28;20088;-82
2023/07/05 03:08:42;;;;;;;15.50;9.82;;;14.40;99.90;;;;;;5032129;28;20037;-75
2023/07/05 03:11:07;;;;;;;15.45;8.70;;;14.40;99.90;;;;;;5027113;28;20045;-77
2023/07/05 03:13:34;;;;;;;20.27;9.30;;;14.40;99.90;;;;;;5049675;28;20067;-78
2023/07/05 03:16:01;;;;;;;15.95;10.30;;;14.40;99.90;;;;;;5041589;28;20041;-81
2023/07/05 03:18:27;;;;;;;15.07;8.88;;;14.40;99.90;;;;;;5031689;28;20040;-80
2023/07/05 03:20:53;;;;;;;15.02;9.60;;;14.40;99.90;;;;;;5031552;28;20060;-76
2023/07/05 03:23:19;;;;;;;16.70;9.48;;;14.40;99.90;;;;;;5031792;28;20411;-74
2023/07/05 03:25:59;;;;;;;16.38;10.00;;;14.40;99.90;;;;;;5031694;28;20502;-75
2023/07/05 03:28:28;;;;;;;14.65;9.25;;;14.40;99.90;;;;;;5042669;28;20045;-77
2023/07/05 03:30:56;;;;;;;17.27;9.25;;;14.40;99.90;;;;;;5049129;28;20063;-78
2023/07/05 03:33:21;;;;;;;16.08;9.02;;;14.40;99.90;;;;;;5049778;28;20429;-79
2023/07/05 03:35:56;;;;;;;14.82;9.52;;;14.30;99.90;;;;;;5051992;28;20162;-73
2023/07/05 03:38:24;;;;;;;12.35;8.98;;;14.30;99.90;;;;;;5027073;28;20049;-78
2023/07/05 03:40:57;;;;;;;13.93;8.43;;;14.50;99.90;;;;;;5053260;28;20489;-77
2023/07/05 03:43:24;;;;;;;13.70;9.13;;;14.40;99.90;;;;;;5053184;28;20053;-82
2023/07/05 03:45:51;;;;;;;18.05;10.23;;;14.50;99.90;;;;;;5053692;28;20041;-75
2023/07/05 03:48:17;;;;;;;15.52;9.30;;;14.50;99.90;;;;;;5053231;28;20099;-81
2023/07/05 03:50:43;;;;;;;14.27;9.32;;;14.40;99.90;;;;;;5053177;28;20057;-82
2023/07/05 03:53:08;;;;;;;17.70;9.82;;;14.50;99.90;;;;;;5018625;28;20500;-76
2023/07/05 03:55:35;;;;;;;15.63;9.63;;;14.50;99.90;;;;;;5053022;28;20044;-74
2023/07/05 03:58:00;;;;;;;15.85;9.27;;;14.50;99.90;;;;;;5035195;28;20099;-81
2023/07/05 04:00:26;;;;;;;17.15;9.45;;;14.50;99.90;;;;;;5034501;28;20045;-75
2023/07/05 04:02:51;;;;;;;13.40;9.05;;;14.50;99.90;;;;;;5053331;28;20499;-75
2023/07/05 04:05:17;;;;;;;15.07;8.75;;;14.60;99.90;;;;;;5053236;28;20041;-80
2023/07/05 04:07:43;;;;;;;12.32;8.77;;;14.60;99.90;;;;;;5052792;28;20132;-81
2023/07/05 04:10:09;;;;;;;13.30;7.60;;;14.70;99.90;;;;;;5045183;28;20075;-75
2023/07/05 04:12:34;;;;;;;13.55;7.65;;;14.60;99.90;;;;;;5034576;28;20037;-83
2023/07/05 04:15:00;;;;;;;13.80;8.50;;;14.80;99.90;;;;;;5052647;28;20037;-77
2023/07/05 04:17:29;;;;;;;11.88;7.60;;;14.70;99.90;;;;;;5052381;28;20072;-74
2023/07/05 04:19:55;;;;;;;10.73;7.72;;;14.70;99.90;;;;;;5052887;28;20056;-81
2023/07/05 04:22:20;;;;;;;11.68;7.35;;;14.80;99.90;;;;;;5052794;28;20033;-75
2023/07/05 04:24:46;;;;;;;15.65;8.25;;;14.80;99.90;;;;;;5043995;28;20033;-78
2023/07/05 04:27:12;;;;;;;11.45;7.97;;;14.90;99.90;;;;;;5051309;28;20123;-81
2023/07/05 04:29:38;;;;;;;11.80;7.93;;;14.90;99.90;;;;;;5040876;28;20112;-74
2023/07/05 04:32:04;;;;;;;12.73;8.10;;;14.90;99.90;;;;;;5050798;28;20056;-76
2023/07/05 04:34:29;;;;;;;10.88;7.68;;;14.90;99.90;;;;;;5048222;28;20413;-77
2023/07/05 04:36:55;;;;;;;11.73;7.82;;;14.90;99.90;;;;;;5048484;28;20120;-80
2023/07/05 04:39:21;;;;;;;12.82;7.53;;;14.90;99.90;;;;;;5042974;28;20389;-75
2023/07/05 04:41:46;;;;;;;11.10;7.10;;;15.00;99.90;;;;;;5049164;28;20091;-78
2023/07/05 04:44:12;;;;;;;11.80;7.32;;;15.00;99.90;;;;;;5050763;28;20064;-76
2023/07/05 04:46:37;;;;;;;9.10;6.50;;;15.00;99.90;;;;;;5049597;28;20044;-78
2023/07/05 04:49:03;;;;;;;11.18;6.13;;;15.00;99.90;;;;;;5050695;28;20140;-73
2023/07/05 04:51:29;;;;;;;9.32;5.97;;;15.00;99.90;;;;;;5050819;28;20076;-75
2023/07/05 04:53:54;;;;;;;10.65;5.20;;;15.00;99.90;;;;;;5050566;28;20541;-75
2023/07/05 04:56:20;;;;;;;10.77;5.55;;;15.00;99.90;;;;;;5049827;28;20045;-81
2023/07/05 04:58:48;;;;;;;8.63;5.55;;;14.90;99.90;;;;;;5043530;28;20041;-75
2023/07/05 05:01:14;;;;;;;12.35;6.05;;;15.00;99.90;;;;;;5050509;28;20488;-81
2023/07/05 05:03:40;;;;;;;9.55;4.93;;;15.00;99.90;;;;;;5049343;28;20056;-81
2023/07/05 05:06:06;;;;;;;7.53;4.05;;;15.00;99.90;;;;;;5051654;28;20048;-82
2023/07/05 05:08:32;;;;;;;9.20;4.10;;;15.00;99.90;;;;;;5046847;28;20041;-78
2023/07/05 05:11:00;;;;;;;8.80;3.53;;;14.90;99.90;;;;;;5040770;28;20049;-84
2023/07/05 05:13:27;;;;;;;6.70;3.25;;;14.80;99.90;;;;;;5032129;28;20041;-75
2023/07/05 05:15:54;;;;;;;8.65;3.40;;;14.70;99.90;;;;;;5045102;28;20425;-80
2023/07/05 05:18:21;;;;;;;6.82;3.47;;;14.70;99.90;;;;;;5039441;28;20537;-83
2023/07/05 05:20:48;;;;;;;4.72;3.22;;;14.70;99.90;;;;;;5049894;28;20049;-75
2023/07/05 05:23:14;;;;;;;9.93;3.50;;;14.70;99.90;;;;;;5049768;28;20056;-75
2023/07/05 05:25:44;;;;;;;8.57;3.72;;;14.70;99.90;;;;;;5045903;28;20037;-75
2023/07/05 05:28:10;;;;;;;5.90;3.53;;;14.60;99.90;;;;;;5043074;28;20048;-72
2023/07/05 05:30:37;;;;;;;6.90;4.22;;;14.60;99.90;;;;;;5049723;28;20496;-75
2023/07/05 05:33:03;;;;;;;7.63;3.72;;;14.60;99.90;;;;;;5051036;28;20057;-74
2023/07/05 05:35:31;;;;;;;6.60;3.45;;;14.50;99.90;;;;;;5050903;28;20502;-75
2023/07/05 05:37:57;;;;;;;5.97;3.85;;;14.50;99.90;;;;;;5049446;28;20049;-81
2023/07/05 05:40:22;;;;;;;6.43;3.90;;;14.60;99.90;;;;;;5041800;28;20048;-74
2023/07/05 05:42:48;;;;;;;11.50;4.07;;;14.50;99.90;;;;;;5050306;28;20205;-80
2023/07/05 05:45:14;;;;;;;8.25;3.63;;;14.50;99.90;;;;;;5049473;28;20091;-80
2023/07/05 05:47:39;;;;;;;5.35;3.13;;;14.50;99.90;;;;;;5049093;28;20037;-75
2023/07/05 05:50:06;;;;;;;7.68;4.03;;;14.50;99.90;;;;;;5049243;28;20037;-74
2023/07/05 05:52:33;;;;;;;7.45;3.85;;;14.50;99.90;;;;;;5050534;28;20045;-75
2023/07/05 05:54:59;;;;;;;7.30;3.75;;;14.50;99.90;;;;;;5049165;28;20048;-78
2023/07/05 05:57:25;;;;;;;6.72;3.75;;;14.50;99.90;;;;;;5049966;28;20090;-78
2023/07/05 05:59:50;;;;;;;10.13;4.18;;;14.50;99.90;;;;;;5050533;28;20041;-76
2023/07/05 06:02:16;;;;;;;8.02;3.72;;;14.40;99.90;;;;;;5050648;28;20048;-80
2023/07/05 06:04:42;;;;;;;6.28;3.67;;;14.40;99.90;;;;;;5048858;28;20126;-75
2023/07/05 06:07:07;;;;;;;10.52;3.35;;;14.50;99.90;;;;;;5050187;28;20032;-75
2023/07/05 06:09:38;;;;;;;9.45;3.72;;;14.50;99.90;;;;;;5049168;28;20400;-74
2023/07/05 06:12:04;;;;;;;6.68;3.38;;;14.50;99.90;;;;;;5050133;28;20072;-71
2023/07/05 06:14:29;;;;;;;8.52;4.35;;;14.50;99.90;;;;;;5050429;28;20860;-77
2023/07/05 06:16:55;;;;;;;7.50;3.38;;;14.50;99.90;;;;;;5048136;28;20052;-77
2023/07/05 06:19:21;;;;;;;8.10;3.30;;;14.50;99.90;;;;;;5049033;28;20032;-74
2023/07/05 06:21:46;;;;;;;4.47;2.72;;;14.50;99.90;;;;;;5050142;28;20476;-80
2023/07/05 06:24:12;;;;;;;7.13;3.40;;;14.50;99.90;;;;;;5050455;28;20036;-73
2023/07/05 06:26:37;;;;;;;5.60;3.00;;;14.50;99.90;;;;;;5048428;28;20091;-82
2023/07/05 06:29:03;;;;;;;9.27;3.22;;;14.60;99.90;;;;;;5049708;28;20056;-76
2023/07/05 06:31:33;;;;;;;5.45;3.30;;;14.60;99.90;;;;;;5049895;28;20550;-73
2023/07/05 06:34:01;;;;;;;5.53;3.00;;;14.60;99.90;;;;;;5049567;28;20057;-76
2023/07/05 06:36:27;;;;;;;6.72;3.40;;;14.60;99.90;;;;;;5049103;28;20029;-78
2023/07/05 06:38:53;;;;;;;6.07;3.33;;;14.70;99.90;;;;;;5049558;28;20497;-77
2023/07/05 06:41:18;;;;;;;5.78;3.10;;;14.80;99.90;;;;;;5049553;28;20041;-77
2023/07/05 06:43:44;;;;;;;11.77;4.05;;;14.80;99.90;;;;;;5049301;28;20057;-74
2023/07/05 06:46:11;;;;;;;5.35;3.03;;;14.90;99.90;;;;;;5046928;28;20128;-75
2023/07/05 06:48:36;;;;;;;9.80;2.67;;;15.00;99.90;;;;;;5047502;28;20614;-75
2023/07/05 06:51:02;;;;;;;7.50;3.08;;;14.90;99.90;;;;;;5048303;28;20128;-74
2023/07/05 06:53:28;;;;;;;5.38;2.63;;;14.90;99.90;;;;;;5049539;28;20489;-75
2023/07/05 06:55:54;;;;;;;5.38;2.45;;;15.00;99.90;;;;;;5048584;28;20041;-79
2023/07/05 06:58:20;;;;;;;7.38;2.67;;;15.00;99.90;;;;;;5049200;28;20545;-77
2023/07/05 07:00:47;;;;;;;5.70;2.80;;;15.10;99.90;;;;;;5049285;28;20049;-76
2023/07/05 07:03:13;;;;;;;5.82;3.20;;;15.30;99.90;;;;;;5049340;28;20385;-74
2023/07/05 07:05:39;;;;;;;6.53;2.75;;;15.40;99.90;;;;;;5048022;28;20060;-76
2023/07/05 07:08:04;;;;;;;8.27;3.03;;;15.40;99.90;;;;;;5049553;28;20037;-76
2023/07/05 07:10:30;;;;;;;6.68;3.22;;;15.50;99.90;;;;;;5052310;28;20044;-75
2023/07/05 07:12:56;;;;;;;8.48;3.33;;;15.40;99.90;;;;;;5055853;28;20392;-81
2023/07/05 07:15:22;;;;;;;6.45;2.97;;;15.60;99.90;;;;;;5055717;28;20384;-80
2023/07/05 07:17:47;;;;;;;6.47;2.90;;;15.60;99.90;;;;;;5056020;28;20037;-76
2023/07/05 07:20:14;;;;;;;7.90;2.67;;;15.60;99.90;;;;;;5038105;28;20045;-76
2023/07/05 07:22:40;;;;;;;7.75;2.97;;;15.60;99.90;;;;;;5053743;28;20053;-80
2023/07/05 07:25:07;;;;;;;4.78;2.60;;;15.60;99.90;;;;;;5056019;28;20052;-80
2023/07/05 07:27:32;;;;;;;4.55;1.98;;;15.50;99.90;;;;;;5054105;28;20045;-75
2023/07/05 07:29:58;;;;;;;7.68;2.05;;;15.50;99.90;;;;;;5047236;28;20048;-76
2023/07/05 07:32:24;;;;;;;8.70;2.25;;;15.40;99.90;;;;;;5053637;28;20092;-77
2023/07/05 07:34:54;;;;;;;5.00;1.90;;;15.40;99.90;;;;;;5053921;28;20491;-80
2023/07/05 07:37:20;;;;;;;7.20;2.08;;;15.50;99.90;;;;;;5045809;28;20041;-78
2023/07/05 07:39:45;;;;;;;6.18;2.45;;;15.30;99.90;;;;;;5056040;28;20102;-77
2023/07/05 07:42:11;;;;;;;6.03;2.78;;;15.30;99.90;;;;;;5054349;28;20052;-80
2023/07/05 07:44:37;;;;;;;11.25;2.38;;;15.10;99.90;;;;;;5053927;28;20045;-80
2023/07/05 07:47:03;;;;;;;5.38;2.03;;;14.90;99.90;;;;;;5055801;28;20061;-79
2023/07/05 07:49:29;;;;;;;4.57;2.20;;;14.70;99.90;;;;;;5055623;28;20063;-83
2023/07/05 07:51:55;;;;;;;5.13;1.98;;;14.60;99.90;;;;;;5054304;28;20476;-77
2023/07/05 07:54:26;;;;;;;4.40;1.30;;;14.40;99.90;;;;;;5055676;28;20102;-76
2023/07/05 07:56:54;;;;;;;2.90;1.10;;;14.00;99.90;;;;;;5056027;28;20545;-78
2023/07/05 07:59:20;;;;;;;1.90;0.80;;;13.80;99.90;;;;;;5055418;28;20048;-80
2023/07/05 08:01:46;;;;;;;3.88;0.80;;;13.60;99.90;;;;;;5048081;28;20084;-82
2023/07/05 08:04:14;;;;;;;1.67;0.70;;;13.40;99.90;;;;;;5055638;28;20073;-78
2023/07/05 08:06:42;;;;;;;1.73;0.75;;;13.30;99.90;;;;;;5054660;28;20045;-80
2023/07/05 08:09:10;;;;;;;2.47;0.90;;;13.20;99.90;;;;;;5048892;28;20041;-79
2023/07/05 08:11:38;;;;;;;3.08;0.95;;;13.40;99.90;;;;;;5056380;28;20033;-78
2023/07/05 08:14:05;;;;;;;2.35;0.50;;;13.00;99.90;;;;;;5055972;28;20073;-81
2023/07/05 08:16:31;;;;;;;3.42;0.80;;;12.80;99.90;;;;;;5037619;28;20040;-80
2023/07/05 08:18:57;;;;;;;6.32;0.82;;;12.80;99.90;;;;;;5037635;28;20111;-79
2023/07/05 08:21:23;;;;;;;2.80;1.10;;;12.70;99.90;;;;;;5053581;28;20761;-81
2023/07/05 08:23:49;;;;;;;3.35;0.90;;;12.60;99.90;;;;;;5051684;28;20446;-76
2023/07/05 08:26:15;;;;;;;2.17;0.68;;;12.50;99.90;;;;;;5053073;28;20043;-82
2023/07/05 08:28:42;;;;;;;2.38;0.75;;;12.50;99.90;;;;;;5052706;28;20417;-81
2023/07/05 08:31:08;;;;;;;3.22;0.77;;;12.40;99.90;;;;;;5052688;28;20053;-77
2023/07/05 08:33:36;;;;;;;2.30;0.47;;;12.30;99.90;;;;;;5053266;28;20098;-79
2023/07/05 08:36:12;;;;;;;1.40;0.73;;;12.30;99.90;;;;;;5051194;28;20567;-80
2023/07/05 08:38:39;;;;;;;2.17;0.68;;;12.20;99.90;;;;;;5045298;28;20037;-81
2023/07/05 08:41:17;;;;;;;3.10;0.77;;;12.20;99.90;;;;;;5050108;28;20053;-82
2023/07/05 08:43:53;;;;;;;3.72;0.57;;;12.10;99.90;;;;;;5051104;28;20088;-77
2023/07/05 08:46:19;;;;;;;7.28;0.80;;;12.10;99.90;;;;;;5052432;28;20051;-83
2023/07/05 08:48:48;;;;;;;1.23;0.50;;;12.10;99.90;;;;;;5051215;28;20057;-77
2023/07/05 08:51:15;;;;;;;4.05;0.77;;;12.20;99.90;;;;;;5051157;28;20515;-77
2023/07/05 08:53:52;;;;;;;3.67;0.80;;;12.10;99.90;;;;;;5052790;28;20116;-80
2023/07/05 08:56:31;;;;;;;3.13;0.65;;;12.00;99.90;;;;;;5050879;28;20053;-78
2023/07/05 08:59:28;;;;;;;4.03;1.08;;;12.00;99.90;;;;;;5051112;28;20764;-82
2023/07/05 09:01:59;;;;;;;6.43;0.90;;;12.10;99.90;;;;;;5034543;28;20800;-80
2023/07/05 09:04:32;;;;;;;7.40;1.35;;;12.00;99.90;;;;;;5051638;28;20542;-83
2023/07/05 09:07:26;;;;;;;6.38;1.20;;;12.10;99.90;;;;;;5052873;28;20118;-86
2023/07/05 09:10:04;;;;;;;6.70;1.38;;;12.10;99.90;;;;;;5039744;28;20049;-83
2023/07/05 09:12:42;;;;;;;6.53;1.55;;;12.20;99.90;;;;;;5052337;28;20045;-80
2023/07/05 09:15:14;;;;;;;7.25;1.52;;;12.40;99.90;;;;;;5044011;28;20037;-86
2023/07/05 09:18:02;;;;;;;6.25;1.45;;;12.30;99.90;;;;;;5051907;28;20086;-84
2023/07/05 09:20:46;;;;;;;7.35;1.30;;;12.40;99.90;;;;;;5047390;28;20053;-86
2023/07/05 09:23:19;;;;;;;4.40;1.20;;;12.50;99.90;;;;;;5044839;28;20048;-85
2023/07/05 09:25:49;;;;;;;5.65;0.80;;;12.50;99.90;;;;;;5042100;28;20045;-82
2023/07/05 09:28:23;;;;;;;3.40;0.73;;;12.60;99.90;;;;;;5052444;28;20041;-85
2023/07/05 09:30:48;;;;;;;3.03;0.60;;;12.80;99.90;;;;;;5042564;28;20053;-87
2023/07/05 09:33:19;;;;;;;6.70;0.50;;;12.80;99.90;;;;;;5044185;28;20045;-83
2023/07/05 09:35:46;;;;;;;11.45;0.50;;;12.90;99.90;;;;;;5051629;28;20053;-83
2023/07/05 09:38:21;;;;;;;6.32;0.70;;;12.90;99.90;;;;;;5050308;28;20036;-82
2023/07/05 09:40:52;;;;;;;3.92;0.43;;;13.00;99.90;;;;;;5032905;28;20243;-80
2023/07/05 09:43:33;;;;;;;24.83;1.08;;;13.00;99.90;;;;;;5043461;28;20103;-76
2023/07/05 09:46:06;;;;;;;5.57;0.88;;;13.40;99.90;;;;;;5047349;28;20037;-80
2023/07/05 09:48:41;;;;;;;2.75;0.68;;;13.20;99.90;;;;;;5033478;28;20049;-83
2023/07/05 09:51:07;;;;;;;11.18;1.25;;;13.20;99.90;;;;;;5048836;28;20045;-84
2023/07/05 09:53:39;;;;;;;7.93;0.57;;;13.20;99.90;;;;;;5051341;28;20048;-85
2023/07/05 09:56:14;;;;;;;7.30;0.45;;;13.30;99.90;;;;;;5050098;28;20139;-83
2023/07/05 09:58:44;;;;;;;3.83;0.40;;;13.40;99.90;;;;;;5025469;28;20115;-86
2023/07/05 10:01:17;;;;;;;2.55;0.50;;;13.60;99.90;;;;;;5051425;28;20055;-87
2023/07/05 10:04:12;;;;;;;3.03;0.50;;;13.60;99.90;;;;;;5050971;28;20098;-87
2023/07/05 10:06:41;;;;;;;3.45;0.32;;;13.70;99.90;;;;;;4970077;28;20130;-84
2023/07/05 10:09:16;;;;;;;10.15;0.47;;;13.90;99.90;;;;;;4954141;28;20042;-78
2023/07/05 10:11:44;;;;;;;3.72;0.55;;;14.10;99.90;;;;;;4953900;28;20080;-78
2023/07/05 10:14:14;;;;;;;5.43;0.50;;;14.00;99.90;;;;;;4969823;28;20118;-77
2023/07/05 10:16:48;;;;;;;1.45;0.55;;;13.90;99.90;;;;;;4969484;28;20514;-77
2023/07/05 10:19:23;;;;;;;4.60;0.50;;;14.00;99.90;;;;;;4945067;28;20496;-75
2023/07/05 10:22:01;;;;;;;2.92;0.57;;;14.50;99.90;;;;;;4969539;28;20050;-79
2023/07/05 10:24:30;;;;;;;3.78;0.47;;;14.70;99.90;;;;;;4953445;28;20050;-76
2023/07/05 10:27:24;;;;;;;2.15;0.50;;;15.20;99.90;;;;;;4969539;28;20050;-75
2023/07/05 10:30:00;;;;;;;7.77;1.17;;;15.20;99.90;;;;;;4951330;28;20438;-81
2023/07/05 10:32:27;;;;;;;3.63;0.43;;;15.10;99.90;;;;;;4953563;28;20109;-77
2023/07/05 10:34:55;;;;;;;2.22;0.60;;;15.00;99.90;;;;;;4945314;28;20054;-79
2023/07/05 10:37:39;;;;;;;8.27;0.80;;;15.10;99.90;;;;;;4953476;28;20050;-80
2023/07/05 10:40:09;;;;;;;4.80;0.70;;;15.50;99.90;;;;;;4953154;28;20062;-78
2023/07/05 10:42:38;;;;;;;5.95;0.55;;;15.70;99.90;;;;;;4963304;28;20056;-78
2023/07/05 10:45:04;;;;;;;2.05;0.55;;;15.60;99.90;;;;;;5049438;28;20083;-77
2023/07/05 10:47:32;;;;;;;1.30;0.40;;;15.80;99.90;;;;;;5048517;28;20524;-77
2023/07/05 10:50:06;;;;;;;3.17;0.50;;;16.00;99.90;;;;;;5048570;28;20132;-77
2023/07/05 10:52:35;;;;;;;3.53;0.60;;;16.40;99.90;;;;;;5046883;28;20041;-77
2023/07/05 10:55:21;;;;;;;2.08;0.60;;;16.60;99.90;;;;;;5050337;28;20069;-78
2023/07/05 10:58:12;;;;;;;3.40;0.90;;;17.00;99.90;;;;;;5042746;28;20049;-78
2023/07/05 11:00:44;;;;;;;4.65;0.80;;;17.10;99.90;;;;;;5031174;28;20057;-78
2023/07/05 11:03:11;;;;;;;1.95;0.80;;;17.20;99.90;;;;;;5050279;28;20048;-79
2023/07/05 11:05:48;;;;;;;4.97;0.80;;;17.30;99.90;;;;;;5048215;28;20049;-80
2023/07/05 11:08:41;;;;;;;5.13;0.80;;;17.30;99.90;;;;;;5048646;28;20488;-80
2023/07/05 11:11:19;;;;;;;8.15;0.95;;;17.40;99.90;;;;;;5044063;28;20037;-78
2023/07/05 11:13:47;;;;;;;5.93;0.80;;;17.70;99.90;;;;;;5050382;28;20079;-79
2023/07/05 11:16:25;;;;;;;2.83;0.77;;;17.90;99.90;;;;;;5050148;28;20124;-79
2023/07/05 11:19:11;;;;;;;4.55;1.02;;;17.80;99.90;;;;;;5049853;28;20075;-78
2023/07/05 11:21:50;;;;;;;8.77;0.90;;;17.80;99.90;;;;;;5049818;28;20033;-78
2023/07/05 11:24:30;;;;;;;5.13;1.10;;;17.80;99.90;;;;;;5043506;28;20077;-78
2023/07/05 11:26:57;;;;;;;9.55;1.38;;;17.80;99.90;;;;;;5049080;28;20049;-81
2023/07/05 11:29:28;;;;;;;6.65;1.50;;;17.80;99.90;;;;;;5049903;28;20041;-77
2023/07/05 11:31:54;;;;;;;4.40;0.70;;;17.80;99.90;;;;;;5048860;28;20099;-79
2023/07/05 11:34:25;;;;;;;8.73;1.10;;;17.90;99.90;;;;;;5048820;28;20072;-77
2023/07/05 11:37:15;;;;;;;5.90;1.23;;;17.90;99.90;;;;;;5049930;28;20122;-79
2023/07/05 11:39:45;;;;;;;11.85;1.50;;;17.80;99.90;;;;;;4971942;28;20848;-79
2023/07/05 11:42:37;;;;;;;4.57;1.00;;;17.90;99.90;;;;;;4988226;28;20062;-79
2023/07/05 11:45:05;;;;;;;6.47;1.70;;;18.00;99.90;;;;;;4972372;28;20055;-78
2023/07/05 11:47:34;;;;;;;5.28;1.00;;;18.10;99.90;;;;;;4988264;28;20126;-81
2023/07/05 11:50:06;;;;;;;7.30;1.15;;;18.20;99.90;;;;;;4971803;28;20061;-80
2023/07/05 11:52:59;;;;;;;6.13;1.00;;;18.20;99.90;;;;;;4986500;28;20046;-78
2023/07/05 11:55:34;;;;;;;10.52;1.60;;;18.20;99.90;;;;;;4964370;28;20054;-80
2023/07/05 11:58:09;;;;;;;11.13;1.77;;;18.00;99.90;;;;;;4990896;28;20054;-78
2023/07/05 12:00:37;;;;;;;8.50;1.60;;;17.90;99.90;;;;;;4975498;28;20131;-78
2023/07/05 12:03:13;;;;;;;9.57;1.58;;;17.50;99.90;;;;;;4974785;28;20508;-79
2023/07/05 12:05:39;;;;;;;8.07;1.48;;;16.90;99.90;;;;;;4974335;28;20062;-77
2023/07/05 12:08:19;;;;;;;9.65;1.60;;;16.50;99.90;;;;;;4991081;28;20077;-76
2023/07/05 12:10:58;;;;;;;7.70;1.15;;;16.00;99.90;;;;;;4991318;28;20059;-82
2023/07/05 12:13:29;;;;;;;5.68;1.45;;;15.60;99.90;;;;;;4991423;28;20046;-79
2023/07/05 12:15:56;;;;;;;9.45;1.70;;;15.30;99.90;;;;;;5000954;28;20063;-81
2023/07/05 12:18:22;;;;;;;6.68;1.50;;;15.10;99.90;;;;;;5045839;28;20029;-77
2023/07/05 12:20:50;;;;;;;7.05;1.52;;;14.90;99.90;;;;;;5052416;28;20568;-82
2023/07/05 12:23:18;;;;;;;5.55;1.67;;;14.70;99.90;;;;;;5048354;28;20497;-78
2023/07/05 12:25:55;;;;;;;6.68;1.60;;;14.50;99.90;;;;;;5046641;28;20053;-84
2023/07/05 12:28:24;;;;;;;8.07;1.83;;;14.30;99.90;;;;;;5044675;28;20124;-85
2023/07/05 12:30:56;;;;;;;13.75;2.42;;;14.20;99.90;;;;;;5049549;28;20052;-84
2023/07/05 12:33:24;;;;;;;8.45;1.80;;;14.00;99.90;;;;;;5051608;28;20078;-77
2023/07/05 12:36:10;;;;;;;12.70;2.45;;;13.90;99.90;;;;;;5052967;28;20047;-85
2023/07/05 12:38:39;;;;;;;12.05;2.38;;;13.80;99.90;;;;;;5045232;28;20392;-85
2023/07/05 12:41:15;;;;;;;13.80;2.88;;;13.60;99.90;;;;;;5051751;28;20041;-82
2023/07/05 12:43:41;;;;;;;15.07;2.83;;;13.60;99.90;;;;;;5037285;28;20048;-82
2023/07/05 12:46:22;;;;;;;13.70;2.40;;;13.60;99.90;;;;;;5052446;28;20047;-85
2023/07/05 12:48:50;;;;;;;16.10;2.85;;;13.60;99.90;;;;;;5051374;28;20079;-86
2023/07/05 12:51:23;;;;;;;10.27;2.30;;;13.60;99.90;;;;;;5052051;28;20048;-84
2023/07/05 12:53:50;;;;;;;14.57;2.80;;;13.60;99.90;;;;;;5044079;28;20045;-82
2023/07/05 12:56:18;;;;;;;13.48;2.50;;;13.60;99.90;;;;;;5050879;28;20057;-87